createdAt,value
2022-10-09T00:00:30.884Z,12.63
2022-10-09T00:05:35.423Z,14.53
2022-10-09T00:10:44.899Z,13.53
2022-10-09T00:15:48.814Z,13.00
2022-10-09T00:20:50.552Z,16.57
2022-10-09T00:25:57.548Z,18.17
2022-10-09T00:31:06.205Z,13.63
2022-10-09T00:36:12.844Z,14.07
2022-10-09T00:41:16.856Z,14.33
2022-10-09T00:46:56.158Z,19.07
2022-10-09T00:52:04.177Z,16.13
2022-10-09T00:57:05.954Z,16.40
2022-10-09T01:02:08.097Z,19.57
2022-10-09T01:07:34.054Z,15.60
2022-10-09T01:12:53.779Z,14.17
2022-10-09T01:18:01.436Z,16.20
2022-10-09T01:23:34.173Z,17.67
2022-10-09T01:28:36.355Z,16.90
2022-10-09T01:33:43.733Z,12.43
2022-10-09T01:38:51.275Z,16.63
2022-10-09T01:44:00.044Z,10.73
2022-10-09T01:49:43.296Z,14.60
2022-10-09T01:54:50.528Z,11.17
2022-10-09T01:59:55.313Z,14.90
2022-10-09T02:04:58.206Z,11.20
2022-10-09T02:10:03.875Z,16.03
2022-10-09T02:15:06.033Z,17.93
2022-10-09T02:20:13.951Z,16.93
2022-10-09T02:25:20.742Z,11.40
2022-10-09T02:30:29.755Z,16.00
2022-10-09T02:35:34.421Z,15.67
2022-10-09T02:40:41.108Z,9.67
2022-10-09T02:45:43.797Z,14.33
2022-10-09T02:50:45.713Z,15.90
2022-10-09T02:55:49.543Z,13.37
2022-10-09T03:00:55.709Z,15.27
2022-10-09T03:06:05.968Z,10.43
2022-10-09T03:11:12.317Z,13.50
2022-10-09T03:16:18.844Z,21.73
2022-10-09T03:21:25.373Z,12.73
2022-10-09T03:26:31.198Z,12.47
2022-10-09T03:31:52.849Z,14.93
2022-10-09T03:36:57.204Z,22.53
2022-10-09T03:42:01.264Z,10.80
2022-10-09T03:47:04.174Z,8.57
2022-10-09T03:52:12.066Z,11.37
2022-10-09T03:57:13.828Z,7.83
2022-10-09T04:02:18.103Z,14.60
2022-10-09T04:07:23.901Z,13.07
2022-10-09T04:12:30.256Z,11.17
2022-10-09T04:17:31.968Z,14.33
2022-10-09T04:22:36.210Z,17.63
2022-10-09T04:27:48.074Z,17.67
2022-10-09T04:32:52.774Z,14.17
2022-10-09T04:37:54.489Z,14.97
2022-10-09T04:42:58.768Z,14.73
2022-10-09T04:48:00.475Z,15.37
2022-10-09T04:53:06.972Z,16.50
2022-10-09T04:58:09.533Z,20.60
2022-10-09T05:03:14.272Z,16.20
2022-10-09T05:08:20.479Z,18.53
2022-10-09T05:13:22.295Z,20.67
2022-10-09T05:18:31.393Z,17.27
2022-10-09T05:23:33.146Z,12.77
2022-10-09T05:28:40.517Z,24.43
2022-10-09T05:33:42.285Z,13.20
2022-10-09T05:38:48.690Z,19.97
2022-10-09T05:43:52.861Z,17.73
2022-10-09T05:49:00.223Z,25.60
2022-10-09T05:54:02.052Z,26.57
2022-10-09T05:59:13.829Z,26.87
2022-10-09T06:04:22.104Z,28.03
2022-10-09T06:09:25.557Z,21.80
2022-10-09T06:14:29.961Z,20.60
2022-10-09T06:19:31.858Z,20.17
2022-10-09T06:24:33.544Z,20.53
2022-10-09T06:29:39.490Z,19.50
2022-10-09T06:34:41.204Z,19.93
2022-10-09T06:39:48.118Z,21.53
2022-10-09T06:44:50.186Z,16.20
2022-10-09T06:49:57.231Z,26.10
2022-10-09T06:55:02.236Z,22.23
2022-10-09T07:00:07.001Z,23.80
2022-10-09T07:05:09.236Z,25.20
2022-10-09T07:10:13.273Z,23.87
2022-10-09T07:15:16.092Z,25.43
2022-10-09T07:20:20.783Z,22.27
2022-10-09T07:25:27.740Z,23.73
2022-10-09T07:30:40.266Z,18.83
2022-10-09T07:35:53.484Z,18.27
2022-10-09T07:41:03.488Z,19.00
2022-10-09T07:46:07.064Z,17.37
2022-10-09T07:51:21.045Z,12.37
2022-10-09T07:56:30.222Z,14.60
2022-10-09T08:01:33.712Z,14.23
2022-10-09T08:06:38.768Z,16.30
2022-10-09T08:11:40.792Z,13.40
2022-10-09T08:16:45.043Z,14.23
2022-10-09T08:21:47.785Z,14.50
2022-10-09T08:26:51.736Z,13.77
2022-10-09T08:31:57.154Z,16.17
2022-10-09T08:36:58.835Z,10.20
2022-10-09T08:42:03.468Z,11.30
2022-10-09T08:47:41.328Z,14.40
2022-10-09T08:52:53.967Z,10.35
2022-10-09T08:58:04.398Z,13.73
2022-10-09T09:03:20.588Z,9.68
2022-10-09T09:09:01.268Z,11.80
2022-10-09T09:14:14.968Z,15.65
2022-10-09T09:19:16.704Z,13.77
2022-10-09T09:24:23.754Z,14.48
2022-10-09T09:29:31.488Z,12.90
2022-10-09T09:34:41.461Z,8.75
2022-10-09T09:40:31.407Z,11.32
2022-10-09T09:45:08.004Z,8.27
2022-10-09T09:50:23.372Z,9.48
2022-10-09T09:55:31.871Z,9.50
2022-10-09T10:00:36.811Z,9.77
2022-10-09T10:05:42.036Z,9.52
2022-10-09T10:10:47.884Z,9.70
2022-10-09T10:15:56.492Z,21.05
2022-10-09T10:21:05.010Z,9.52
2022-10-09T10:26:34.606Z,10.77
2022-10-09T10:32:13.659Z,9.40
2022-10-09T10:37:15.346Z,13.10
2022-10-09T10:42:36.916Z,13.85
2022-10-09T10:47:45.644Z,10.10
2022-10-09T10:52:56.515Z,8.48
2022-10-09T10:58:06.999Z,11.15
2022-10-09T11:03:11.933Z,7.68
2022-10-09T11:08:53.794Z,14.07
2022-10-09T11:14:20.541Z,8.63
2022-10-09T11:19:45.732Z,10.30
2022-10-09T11:24:56.395Z,8.75
2022-10-09T11:30:09.939Z,11.30
2022-10-09T11:35:11.744Z,15.80
2022-10-09T11:40:22.066Z,8.88
2022-10-09T11:45:47.929Z,12.80
2022-10-09T11:51:00.118Z,9.40
2022-10-09T11:56:23.334Z,5.88
2022-10-09T12:01:31.951Z,7.68
2022-10-09T12:06:49.740Z,10.95
2022-10-09T12:12:01.720Z,7.70
2022-10-09T12:17:16.232Z,8.32
2022-10-09T12:22:25.926Z,6.72
2022-10-09T12:27:34.549Z,6.70
2022-10-09T12:32:46.476Z,7.38
2022-10-09T12:37:49.261Z,6.13
2022-10-09T12:42:53.559Z,7.53
2022-10-09T12:48:09.555Z,8.57
2022-10-09T12:53:22.173Z,9.40
2022-10-09T12:58:43.675Z,8.20
2022-10-09T13:03:57.442Z,8.98
2022-10-09T13:09:04.737Z,9.55
2022-10-09T13:14:21.520Z,8.63
2022-10-09T13:19:31.921Z,6.72
2022-10-09T13:24:35.883Z,8.95
2022-10-09T13:29:40.416Z,10.90
2022-10-09T13:34:46.429Z,5.57
2022-10-09T13:39:52.433Z,6.07
2022-10-09T13:44:56.864Z,7.50
2022-10-09T13:49:58.722Z,5.45
2022-10-09T13:55:00.493Z,6.80
2022-10-09T14:00:04.809Z,9.45
2022-10-09T14:05:16.103Z,8.02
2022-10-09T14:10:23.617Z,7.65
2022-10-09T14:15:25.620Z,5.25
2022-10-09T14:20:28.634Z,7.32
2022-10-09T14:25:30.788Z,8.07
2022-10-09T14:30:46.815Z,6.50
2022-10-09T14:35:51.194Z,6.10
2022-10-09T14:40:56.346Z,8.73
2022-10-09T14:46:16.955Z,7.40
2022-10-09T14:51:26.220Z,10.00
2022-10-09T14:56:28.279Z,8.68
2022-10-09T15:01:32.676Z,7.70
2022-10-09T15:06:40.641Z,8.52
2022-10-09T15:11:49.702Z,14.77
2022-10-09T15:16:53.665Z,9.35
2022-10-09T15:21:55.453Z,7.10
2022-10-09T15:26:59.382Z,8.02
2022-10-09T15:32:03.986Z,10.18
2022-10-09T15:37:10.460Z,9.02
2022-10-09T15:42:17.420Z,6.13
2022-10-09T15:47:39.263Z,6.47
2022-10-09T15:52:45.932Z,8.63
2022-10-09T15:57:47.716Z,8.93
2022-10-09T16:02:52.787Z,8.32
2022-10-09T16:08:01.950Z,8.85
2022-10-09T16:13:06.389Z,9.75
2022-10-09T16:18:09.401Z,7.75
2022-10-09T16:23:11.990Z,7.00
2022-10-09T16:28:18.630Z,5.85
2022-10-09T16:33:20.681Z,8.43
2022-10-09T16:38:25.137Z,6.55
2022-10-09T16:43:34.032Z,11.57
2022-10-09T16:48:35.775Z,9.35
2022-10-09T16:53:39.745Z,8.77
2022-10-09T16:58:43.699Z,7.20
2022-10-09T17:03:47.830Z,7.88
2022-10-09T17:08:54.180Z,9.18
2022-10-09T17:13:57.044Z,5.43
2022-10-09T17:19:03.937Z,8.30
2022-10-09T17:24:06.393Z,11.32
2022-10-09T17:29:08.104Z,8.45
2022-10-09T17:34:11.884Z,9.43
2022-10-09T17:39:16.109Z,8.50
2022-10-09T17:44:22.815Z,4.88
2022-10-09T17:49:26.715Z,6.13
2022-10-09T17:54:29.478Z,9.57
2022-10-09T17:59:31.580Z,9.50
2022-10-09T18:04:38.224Z,8.68
2022-10-09T18:09:40.008Z,10.73
2022-10-09T18:14:46.501Z,8.25
2022-10-09T18:19:52.132Z,7.53
2022-10-09T18:24:53.952Z,7.95
2022-10-09T18:29:56.632Z,12.55
2022-10-09T18:35:02.471Z,9.65
2022-10-09T18:40:08.903Z,9.93
2022-10-09T18:45:14.631Z,11.27
2022-10-09T18:50:19.620Z,10.45
2022-10-09T18:55:21.544Z,11.57
2022-10-09T19:00:26.238Z,7.03
2022-10-09T19:05:30.341Z,9.10
2022-10-09T19:10:37.710Z,8.02
2022-10-09T19:15:39.486Z,6.75
2022-10-09T19:20:46.598Z,8.23
2022-10-09T19:25:50.450Z,6.22
2022-10-09T19:30:53.881Z,10.02
2022-10-09T19:35:59.094Z,8.18
2022-10-09T19:41:10.031Z,8.27
2022-10-09T19:46:14.465Z,10.55
2022-10-09T19:51:21.216Z,6.28
2022-10-09T19:56:31.456Z,10.27
2022-10-09T20:01:35.446Z,12.88
2022-10-09T20:06:41.487Z,10.93
2022-10-09T20:11:47.804Z,9.85
2022-10-09T20:16:52.177Z,7.60
2022-10-09T20:21:53.937Z,10.07
2022-10-09T20:26:57.860Z,10.55
2022-10-09T20:31:59.673Z,14.52
2022-10-09T20:37:06.067Z,9.60
2022-10-09T20:42:07.943Z,8.45
2022-10-09T20:47:12.019Z,10.45
2022-10-09T20:52:16.386Z,10.82
2022-10-09T20:57:20.378Z,10.45
2022-10-09T21:02:24.593Z,9.85
2022-10-09T21:07:28.904Z,12.27
2022-10-09T21:12:30.685Z,14.07
2022-10-09T21:17:40.372Z,8.98
2022-10-09T21:22:42.064Z,6.72
2022-10-09T21:27:43.768Z,11.95
2022-10-09T21:32:47.916Z,9.27
2022-10-09T21:37:50.530Z,9.95
2022-10-09T21:42:56.831Z,10.32
2022-10-09T21:48:00.815Z,10.70
2022-10-09T21:53:03.490Z,11.50
2022-10-09T21:58:08.941Z,7.43
2022-10-09T22:03:11.893Z,10.20
2022-10-09T22:08:13.675Z,10.35
2022-10-09T22:13:19.921Z,13.10
2022-10-09T22:18:21.615Z,11.75
2022-10-09T22:23:25.560Z,14.18
2022-10-09T22:28:31.948Z,12.00
2022-10-09T22:33:40.926Z,8.75
2022-10-09T22:38:45.972Z,12.55
2022-10-09T22:43:53.378Z,13.48
2022-10-09T22:48:55.176Z,11.68
2022-10-09T22:53:57.763Z,8.57
2022-10-09T22:59:02.356Z,10.32
2022-10-09T23:04:06.755Z,11.38
2022-10-09T23:09:14.169Z,7.25
2022-10-09T23:14:18.211Z,10.60
2022-10-09T23:19:22.215Z,11.32
2022-10-09T23:24:23.933Z,8.50
2022-10-09T23:29:25.715Z,11.88
2022-10-09T23:34:29.785Z,11.90
2022-10-09T23:39:33.690Z,12.00
2022-10-09T23:44:35.368Z,10.25
2022-10-09T23:49:41.832Z,9.47
2022-10-09T23:54:45.754Z,9.90
2022-10-09T23:59:48.455Z,6.97
